Time;durP1;ratioP1;P1;durP2;ratioP2;P2;SDS_P1;SDS_P2;PMS_P1;PMS_P2;Temp;Humidity;BMP_temperature;BMP_pressure;BME280_temperature;BME280_humidity;BME280_pressure;Samples;Min_cycle;Max_cycle;Signal;HPM_P1;HPM_P2
2022/04/14 00:01:13;;;;;;;27.00;8.10;;;;;;;9.55;78.08;95893.81;6367899;22;20082;-59
2022/04/14 00:03:40;;;;;;;14.25;7.63;;;;;;;9.46;78.06;95893.66;6368325;22;20180;-59
2022/04/14 00:06:05;;;;;;;12.95;8.25;;;;;;;9.43;78.70;95886.03;6340057;22;20010;-60
2022/04/14 00:08:31;;;;;;;27.77;9.23;;;;;;;9.41;78.48;95892.38;6367735;22;20007;-59
2022/04/14 00:10:56;;;;;;;13.02;7.35;;;;;;;9.38;78.79;95890.00;6339712;22;20006;-60
2022/04/14 00:13:21;;;;;;;11.95;7.03;;;;;;;9.38;79.04;95896.09;6367377;22;20029;-59
2022/04/14 00:15:47;;;;;;;19.83;7.82;;;;;;;9.31;79.60;95894.94;6367616;22;20006;-58
2022/04/14 00:18:12;;;;;;;14.13;8.05;;;;;;;9.26;80.11;95899.75;6367915;22;20003;-59
2022/04/14 00:20:37;;;;;;;14.48;7.22;;;;;;;9.22;80.34;95898.34;6367177;22;20082;-59
2022/04/14 00:23:03;;;;;;;11.82;6.22;;;;;;;9.17;80.45;95899.59;6367452;22;20002;-59
2022/04/14 00:25:28;;;;;;;12.43;6.07;;;;;;;9.23;79.75;95898.22;6367967;22;20056;-59
2022/04/14 00:27:53;;;;;;;9.77;5.80;;;;;;;9.26;79.35;95903.19;6367751;22;20003;-59
2022/04/14 00:30:19;;;;;;;8.38;5.03;;;;;;;9.21;80.00;95896.69;6367916;22;20081;-59
2022/04/14 00:32:44;;;;;;;7.93;4.72;;;;;;;9.09;81.12;95901.19;6367625;22;19995;-59
2022/04/14 00:35:10;;;;;;;11.10;5.82;;;;;;;9.03;80.37;95895.44;6367614;22;20438;-59
2022/04/14 00:37:35;;;;;;;11.52;5.85;;;;;;;9.05;80.48;95897.97;6367374;22;20430;-59
2022/04/14 00:40:00;;;;;;;13.18;6.15;;;;;;;9.09;80.04;95903.81;6367424;22;20005;-59
2022/04/14 00:42:26;;;;;;;11.52;6.93;;;;;;;9.07;80.29;95911.78;6367701;22;20055;-59
2022/04/14 00:44:51;;;;;;;10.80;5.95;;;;;;;9.04;80.74;95906.81;6367315;22;20461;-59
2022/04/14 00:47:17;;;;;;;12.45;7.85;;;;;;;9.02;81.02;95903.47;6367583;22;20013;-59
2022/04/14 00:49:42;;;;;;;16.42;10.13;;;;;;;8.92;81.70;95900.78;6366895;22;20466;-59
2022/04/14 00:52:09;;;;;;;22.80;9.98;;;;;;;8.91;81.82;95911.38;6367185;22;20006;-59
2022/04/14 00:54:35;;;;;;;24.92;10.25;;;;;;;8.87;81.82;95910.81;6367725;22;20026;-59
2022/04/14 00:57:03;;;;;;;26.08;10.88;;;;;;;8.91;81.26;95909.59;6367199;22;20052;-59
2022/04/14 00:59:29;;;;;;;23.55;10.57;;;;;;;8.92;81.03;95906.03;6367515;22;20009;-59
2022/04/14 01:01:55;;;;;;;25.48;10.48;;;;;;;8.90;81.25;95900.06;6367206;22;20006;-59
2022/04/14 01:04:21;;;;;;;31.90;10.55;;;;;;;8.86;81.75;95909.16;6368216;22;20077;-59
2022/04/14 01:06:47;;;;;;;35.05;13.30;;;;;;;8.79;82.29;95908.81;6367218;22;20045;-59
2022/04/14 01:09:19;;;;;;;27.95;11.45;;;;;;;8.77;81.57;95905.50;6367427;22;20055;-59
2022/04/14 01:11:46;;;;;;;30.95;10.15;;;;;;;8.78;81.63;95909.78;6367733;22;20007;-58
2022/04/14 01:14:38;;;;;;;26.58;9.75;;;;;;;8.73;82.09;95912.78;6367417;22;20028;-59
2022/04/14 01:17:08;;;;;;;29.42;9.65;;;;;;;8.66;82.42;95918.66;6359715;22;20010;-59
2022/04/14 01:19:35;;;;;;;22.02;8.98;;;;;;;8.65;82.57;95919.59;6339489;22;20102;-59
2022/04/14 01:22:08;;;;;;;22.83;8.15;;;;;;;8.56;82.64;95916.78;6366917;22;20012;-59
2022/04/14 01:24:35;;;;;;;14.65;7.03;;;;;;;8.57;82.85;95914.97;6367324;22;20003;-58
2022/04/14 01:27:00;;;;;;;26.70;7.53;;;;;;;8.56;83.46;95923.81;6367262;22;19998;-58
2022/04/14 01:29:28;;;;;;;21.02;7.28;;;;;;;8.58;82.99;95925.34;6367342;22;20006;-59
2022/04/14 01:31:54;;;;;;;20.80;7.78;;;;;;;8.55;83.40;95922.97;6367075;22;20047;-59
2022/04/14 01:34:19;;;;;;;15.27;6.40;;;;;;;8.53;82.25;95932.78;6367009;22;19998;-59
2022/04/14 01:36:45;;;;;;;15.98;5.47;;;;;;;8.55;81.91;95932.63;6367112;22;19998;-59
2022/04/14 01:39:13;;;;;;;13.40;5.10;;;;;;;8.53;82.48;95927.53;6339287;22;20014;-59
2022/04/14 01:41:39;;;;;;;13.88;4.38;;;;;;;8.53;82.47;95924.91;6367026;22;20085;-59
2022/04/14 01:44:05;;;;;;;7.97;3.92;;;;;;;8.51;82.58;95925.97;6366864;22;20002;-58
2022/04/14 01:46:31;;;;;;;9.70;4.32;;;;;;;8.51;83.09;95933.84;6367239;22;19998;-59
2022/04/14 01:48:58;;;;;;;9.50;3.90;;;;;;;8.43;82.78;95930.03;6366594;22;20002;-59
2022/04/14 01:51:23;;;;;;;8.48;3.67;;;;;;;8.38;82.78;95928.72;6367114;22;20007;-59
2022/04/14 01:53:49;;;;;;;7.53;4.65;;;;;;;8.37;83.20;95929.66;6366969;22;20395;-59
2022/04/14 01:56:14;;;;;;;8.20;4.65;;;;;;;8.27;84.35;95930.38;6367226;22;20078;-58
2022/04/14 01:58:39;;;;;;;8.38;4.07;;;;;;;8.21;84.51;95927.44;6367024;22;20002;-59
2022/04/14 02:01:05;;;;;;;8.55;4.35;;;;;;;8.21;83.92;95924.81;6366666;22;19998;-59
2022/04/14 02:03:30;;;;;;;8.15;4.05;;;;;;;8.21;83.63;95928.25;6366993;22;20066;-59
2022/04/14 02:05:56;;;;;;;5.38;3.80;;;;;;;8.22;83.55;95931.72;6367280;22;20034;-59
2022/04/14 02:08:21;;;;;;;5.93;4.13;;;;;;;8.26;83.13;95931.34;6367066;22;20013;-59
2022/04/14 02:10:47;;;;;;;6.95;4.47;;;;;;;8.20;83.15;95929.22;6366875;22;20338;-59
2022/04/14 02:13:12;;;;;;;7.90;4.18;;;;;;;8.11;84.36;95932.56;6366741;22;20035;-59
2022/04/14 02:15:37;;;;;;;7.00;3.85;;;;;;;8.08;83.71;95930.19;6366913;22;20327;-59
2022/04/14 02:18:03;;;;;;;7.82;4.00;;;;;;;8.06;83.98;95924.22;6366629;22;20333;-59
2022/04/14 02:20:28;;;;;;;6.22;3.42;;;;;;;8.03;84.01;95920.88;6366893;22;20411;-59
2022/04/14 02:22:53;;;;;;;9.15;3.60;;;;;;;8.01;84.04;95925.41;6366419;22;20013;-59
2022/04/14 02:25:19;;;;;;;9.00;3.85;;;;;;;7.97;85.37;95924.00;6366875;22;20026;-59
2022/04/14 02:27:44;;;;;;;5.97;3.65;;;;;;;7.95;84.43;95928.53;6367139;22;20005;-59
2022/04/14 02:30:10;;;;;;;12.13;3.67;;;;;;;7.94;83.95;95926.84;6367240;22;19998;-59
2022/04/14 02:32:36;;;;;;;6.50;3.72;;;;;;;7.90;84.53;95920.19;6366942;22;20041;-59
2022/04/14 02:35:04;;;;;;;10.73;6.50;;;;;;;7.81;84.74;95918.28;6366757;22;20330;-59
2022/04/14 02:37:29;;;;;;;14.48;8.65;;;;;;;7.78;84.63;95929.00;6366917;22;20010;-59
2022/04/14 02:39:54;;;;;;;7.80;5.78;;;;;;;7.70;85.74;95926.97;6366770;22;19999;-59
2022/04/14 02:42:20;;;;;;;6.97;4.88;;;;;;;7.65;85.97;95923.88;6366912;22;20014;-59
2022/04/14 02:44:45;;;;;;;7.78;4.88;;;;;;;7.67;85.96;95928.06;6368723;22;20431;-59
2022/04/14 02:47:10;;;;;;;7.88;4.65;;;;;;;7.68;85.46;95929.72;6368608;22;20345;-58
2022/04/14 02:49:36;;;;;;;8.15;4.97;;;;;;;7.67;86.06;95932.44;6368686;22;20010;-59
2022/04/14 02:52:02;;;;;;;6.18;4.30;;;;;;;7.67;85.37;95935.91;6368850;22;20025;-59
2022/04/14 02:54:27;;;;;;;8.63;4.45;;;;;;;7.77;83.93;95932.56;6368651;22;20382;-59
2022/04/14 02:56:52;;;;;;;5.30;4.80;;;;;;;7.77;83.97;95930.78;6369063;22;20010;-59
2022/04/14 02:59:18;;;;;;;5.10;3.88;;;;;;;7.73;84.24;95924.94;6368700;22;20091;-59
2022/04/14 03:01:43;;;;;;;4.72;4.22;;;;;;;7.69;84.55;95914.81;6368516;22;20009;-59
2022/04/14 03:04:08;;;;;;;6.32;4.13;;;;;;;7.64;84.78;95925.66;6368463;22;20029;-59
2022/04/14 03:06:34;;;;;;;5.00;4.22;;;;;;;7.54;85.68;95925.53;6368608;22;20385;-59
2022/04/14 03:08:59;;;;;;;5.38;3.55;;;;;;;7.47;85.74;95915.66;6368769;22;20006;-59
2022/04/14 03:11:24;;;;;;;6.28;4.30;;;;;;;7.42;86.32;95914.22;6368459;22;20379;-59
2022/04/14 03:13:50;;;;;;;7.68;5.03;;;;;;;7.41;85.99;95916.94;6368396;22;20061;-59
2022/04/14 03:16:16;;;;;;;5.30;4.15;;;;;;;7.41;85.82;95916.94;6368744;22;20077;-60
2022/04/14 03:18:41;;;;;;;6.50;4.15;;;;;;;7.39;86.76;95916.22;6368772;22;20324;-59
2022/04/14 03:21:06;;;;;;;5.50;4.45;;;;;;;7.36;86.42;95919.06;6368382;22;20006;-59
2022/04/14 03:23:32;;;;;;;4.70;3.30;;;;;;;7.35;86.46;95918.22;6367805;22;20012;-59
2022/04/14 03:25:57;;;;;;;6.95;3.80;;;;;;;7.36;86.72;95925.13;6368675;22;20026;-59
2022/04/14 03:28:22;;;;;;;5.85;3.75;;;;;;;7.35;86.04;95926.09;6367561;22;20449;-59
2022/04/14 03:30:48;;;;;;;6.60;3.90;;;;;;;7.35;86.14;95933.13;6368837;22;20002;-59
2022/04/14 03:33:13;;;;;;;8.27;4.55;;;;;;;7.29;86.63;95930.03;6368337;22;20494;-59
2022/04/14 03:35:39;;;;;;;8.90;5.03;;;;;;;7.28;87.23;95927.50;6368252;22;20009;-59
2022/04/14 03:38:04;;;;;;;10.90;4.93;;;;;;;7.28;86.55;95927.50;6368015;22;20003;-59
2022/04/14 03:40:30;;;;;;;7.72;3.70;;;;;;;7.29;86.14;95926.56;6367126;22;20009;-59
2022/04/14 03:42:55;;;;;;;6.38;3.67;;;;;;;7.29;86.23;95937.03;6367552;22;20064;-59
2022/04/14 03:45:21;;;;;;;4.95;3.58;;;;;;;7.21;86.86;95937.59;6368155;22;19999;-59
2022/04/14 03:47:46;;;;;;;5.95;4.10;;;;;;;7.19;86.32;95943.94;6368022;22;20028;-58
2022/04/14 03:50:12;;;;;;;5.80;3.78;;;;;;;7.17;86.78;95944.84;6367197;22;20358;-59
2022/04/14 03:52:37;;;;;;;4.93;3.72;;;;;;;7.13;87.86;95943.41;6367744;22;20488;-59
2022/04/14 03:55:03;;;;;;;3.95;3.58;;;;;;;7.10;87.25;95948.88;6367398;22;20006;-59
2022/04/14 03:57:28;;;;;;;4.95;3.30;;;;;;;7.04;87.61;95954.59;6368239;22;20022;-58
2022/04/14 03:59:53;;;;;;;8.50;3.90;;;;;;;7.06;88.23;95957.06;6367830;22;20030;-59
2022/04/14 04:02:19;;;;;;;9.98;3.58;;;;;;;7.06;88.60;95959.69;6367990;22;20010;-59
2022/04/14 04:04:44;;;;;;;7.25;3.85;;;;;;;7.03;88.85;95951.13;6367749;22;20047;-59
2022/04/14 04:07:10;;;;;;;6.13;3.58;;;;;;;7.01;88.87;95952.19;6367994;22;20006;-59
2022/04/14 04:09:36;;;;;;;5.30;3.58;;;;;;;7.01;88.49;95958.25;6368031;22;20059;-60
2022/04/14 04:12:02;;;;;;;5.00;4.07;;;;;;;6.99;88.25;95959.34;6367502;22;20063;-59
2022/04/14 04:14:27;;;;;;;5.28;4.75;;;;;;;6.97;88.43;95962.03;6366703;22;20438;-60
2022/04/14 04:16:52;;;;;;;5.85;3.80;;;;;;;6.93;89.08;95958.00;6367576;22;20338;-59
2022/04/14 04:19:18;;;;;;;9.48;3.88;;;;;;;6.91;88.44;95959.03;6367265;22;20006;-59
2022/04/14 04:21:43;;;;;;;6.13;4.30;;;;;;;6.87;88.19;95956.66;6366973;22;20002;-59
2022/04/14 04:24:08;;;;;;;8.50;3.88;;;;;;;6.88;88.35;95957.50;6367812;22;20431;-58
2022/04/14 04:26:34;;;;;;;6.38;4.40;;;;;;;6.89;87.76;95956.56;6367829;22;19998;-59
2022/04/14 04:28:59;;;;;;;4.70;3.55;;;;;;;6.85;88.08;95958.53;6367493;22;20029;-59
2022/04/14 04:31:25;;;;;;;3.58;3.13;;;;;;;6.82;88.88;95956.16;6367088;22;20002;-60
2022/04/14 04:33:51;;;;;;;7.57;4.35;;;;;;;6.81;88.79;95961.50;6367465;22;20456;-60
2022/04/14 04:36:19;;;;;;;5.20;3.53;;;;;;;6.82;88.58;95964.00;6367662;22;19998;-59
2022/04/14 04:38:45;;;;;;;5.47;3.38;;;;;;;6.79;89.54;95966.84;6367743;22;20328;-59
2022/04/14 04:41:10;;;;;;;4.85;3.50;;;;;;;6.77;89.40;95967.91;6367362;22;20036;-59
2022/04/14 04:43:36;;;;;;;5.70;3.30;;;;;;;6.76;89.76;95971.47;6368141;22;20073;-59
2022/04/14 04:46:01;;;;;;;3.67;3.15;;;;;;;6.71;89.35;95972.66;6367641;22;20438;-60
2022/04/14 04:48:27;;;;;;;5.22;3.35;;;;;;;6.73;88.82;95970.75;6367435;22;20002;-60
2022/04/14 04:50:52;;;;;;;4.93;3.80;;;;;;;6.72;89.06;95976.06;6367347;22;20490;-59
2022/04/14 04:53:18;;;;;;;4.22;3.35;;;;;;;6.68;89.54;95978.09;6367111;22;20045;-59
2022/04/14 04:55:43;;;;;;;4.25;3.80;;;;;;;6.69;89.37;95984.16;6339824;22;20319;-60
2022/04/14 04:58:08;;;;;;;5.72;3.53;;;;;;;6.69;89.38;95976.31;6366913;22;20009;-59
2022/04/14 05:00:34;;;;;;;9.25;3.75;;;;;;;6.67;90.01;95978.19;6368110;22;20011;-59
2022/04/14 05:02:59;;;;;;;4.75;3.22;;;;;;;6.70;89.75;95994.53;6367203;22;20442;-59
2022/04/14 05:05:25;;;;;;;8.05;4.20;;;;;;;6.68;90.24;95988.56;6367348;22;20339;-59
2022/04/14 05:07:50;;;;;;;5.03;3.75;;;;;;;6.70;88.74;95997.13;6367081;22;20005;-60
2022/04/14 05:10:17;;;;;;;9.30;3.72;;;;;;;6.71;89.40;96000.56;6366873;22;20006;-60
2022/04/14 05:12:42;;;;;;;9.80;3.63;;;;;;;6.73;89.72;95994.28;6367298;22;20002;-59
2022/04/14 05:15:08;;;;;;;5.68;5.07;;;;;;;6.75;89.57;95988.97;6367199;22;20013;-59
2022/04/14 05:17:33;;;;;;;4.50;3.72;;;;;;;6.79;89.70;95986.94;6367455;22;20077;-60
2022/04/14 05:19:59;;;;;;;4.03;3.63;;;;;;;6.77;89.65;95987.06;6367135;22;20102;-59
2022/04/14 05:22:24;;;;;;;5.93;3.38;;;;;;;6.79;89.57;95979.94;6366836;22;20013;-60
2022/04/14 05:24:50;;;;;;;4.90;3.53;;;;;;;6.82;89.57;95984.94;6367153;22;20002;-59
2022/04/14 05:27:15;;;;;;;3.97;3.42;;;;;;;6.88;88.93;95991.53;6367128;22;20082;-59
2022/04/14 05:29:41;;;;;;;7.40;3.50;;;;;;;6.92;88.74;95987.72;6366673;22;20398;-59
2022/04/14 05:32:07;;;;;;;6.95;3.55;;;;;;;6.98;88.30;95991.69;6366151;22;20018;-59
2022/04/14 05:34:33;;;;;;;9.20;4.63;;;;;;;6.91;89.52;95993.06;6367212;22;20002;-59
2022/04/14 05:36:58;;;;;;;4.80;3.50;;;;;;;6.81;90.63;95993.75;6366976;22;20465;-59
2022/04/14 05:39:23;;;;;;;9.73;3.60;;;;;;;6.78;91.34;95993.97;6367142;22;19998;-59
2022/04/14 05:41:49;;;;;;;4.72;3.28;;;;;;;6.85;91.02;95991.72;6367096;22;20006;-59
2022/04/14 05:44:14;;;;;;;7.80;3.75;;;;;;;6.93;90.79;95991.16;6366708;22;19998;-59
2022/04/14 05:46:40;;;;;;;10.32;3.28;;;;;;;6.97;89.89;95996.06;6366297;22;20038;-60
2022/04/14 05:49:05;;;;;;;6.45;3.80;;;;;;;7.03;90.37;95992.19;6365860;22;20002;-59
2022/04/14 05:51:30;;;;;;;9.38;3.50;;;;;;;7.06;90.24;95996.34;6365570;22;20030;-59
2022/04/14 05:53:56;;;;;;;6.05;3.88;;;;;;;7.07;91.39;95993.63;6366526;22;19998;-63
2022/04/14 05:56:21;;;;;;;8.15;3.47;;;;;;;7.15;91.07;95991.25;6367054;22;20010;-59
2022/04/14 05:58:47;;;;;;;7.72;3.95;;;;;;;7.20;90.68;95993.53;6366902;22;19994;-59
2022/04/14 06:01:12;;;;;;;5.80;3.47;;;;;;;7.26;89.94;95989.66;6366319;22;20069;-60
2022/04/14 06:03:39;;;;;;;6.47;3.38;;;;;;;7.28;90.06;95991.19;6337746;22;20592;-59
2022/04/14 06:06:05;;;;;;;8.05;3.90;;;;;;;7.31;89.89;95987.50;6365915;22;20003;-59
2022/04/14 06:08:30;;;;;;;6.75;5.20;;;;;;;7.37;89.67;95986.22;6365376;22;19998;-59
2022/04/14 06:10:56;;;;;;;8.13;6.15;;;;;;;7.48;88.56;95985.44;6365685;22;20048;-60
2022/04/14 06:13:21;;;;;;;10.20;4.95;;;;;;;7.56;88.04;95983.91;6365659;22;20005;-59
2022/04/14 06:15:47;;;;;;;8.18;4.32;;;;;;;7.60;88.42;95984.47;6366014;22;20002;-60
2022/04/14 06:18:12;;;;;;;8.23;4.45;;;;;;;7.68;87.78;95982.13;6367033;22;20422;-59
2022/04/14 06:20:37;;;;;;;6.43;4.30;;;;;;;7.74;87.79;95980.84;6366590;22;20002;-59
2022/04/14 06:23:03;;;;;;;10.23;4.50;;;;;;;7.77;88.56;95982.38;6368310;22;20401;-59
2022/04/14 06:25:28;;;;;;;8.55;4.00;;;;;;;7.80;88.14;95982.97;6368684;22;20018;-58
2022/04/14 06:27:55;;;;;;;6.95;3.83;;;;;;;7.86;88.08;95985.13;6368642;22;20331;-59
2022/04/14 06:30:21;;;;;;;14.07;4.13;;;;;;;7.99;87.89;95984.19;6368906;22;20002;-58
2022/04/14 06:33:00;;;;;;;8.32;5.50;;;;;;;8.66;85.18;95984.25;6368953;22;20007;-59
2022/04/14 06:35:26;;;;;;;5.80;3.72;;;;;;;9.64;82.51;95982.44;6368949;22;19998;-58
2022/04/14 06:37:52;;;;;;;7.88;5.30;;;;;;;10.50;78.72;95983.97;6368850;22;20386;-59
2022/04/14 06:40:20;;;;;;;7.18;4.03;;;;;;;11.27;74.36;95976.31;6368904;22;20009;-59
2022/04/14 06:42:45;;;;;;;6.25;4.30;;;;;;;12.16;71.38;95981.41;6369186;22;20457;-59
2022/04/14 06:45:10;;;;;;;8.68;3.70;;;;;;;12.79;67.66;95982.50;6368819;22;20006;-59
2022/04/14 06:47:36;;;;;;;7.68;3.78;;;;;;;13.53;64.69;95979.75;6368956;22;20377;-58
2022/04/14 06:50:01;;;;;;;6.85;2.95;;;;;;;13.96;63.19;95971.13;6368575;22;20474;-59
2022/04/14 06:52:27;;;;;;;13.63;8.60;;;;;;;14.25;62.61;95973.41;6368715;22;20010;-59
2022/04/14 06:54:52;;;;;;;12.52;8.98;;;;;;;14.40;60.16;95975.47;6368717;22;20008;-59
2022/04/14 06:57:19;;;;;;;8.50;3.78;;;;;;;14.68;60.56;95968.13;6369197;22;20010;-59
2022/04/14 06:59:44;;;;;;;5.15;3.40;;;;;;;15.20;58.21;95971.56;6369134;22;20010;-59
2022/04/14 07:02:09;;;;;;;4.43;2.97;;;;;;;15.29;57.35;95975.06;6368327;22;20335;-59
2022/04/14 07:04:35;;;;;;;6.00;2.65;;;;;;;15.82;57.56;95970.25;6368681;22;20002;-59
2022/04/14 07:07:00;;;;;;;9.95;3.55;;;;;;;16.18;55.71;95964.56;6368441;22;20078;-59
2022/04/14 07:09:31;;;;;;;10.32;3.60;;;;;;;16.40;55.83;95970.16;6368597;22;20044;-59
2022/04/14 07:11:59;;;;;;;12.02;4.30;;;;;;;16.49;54.83;95970.09;6368251;22;19999;-59
2022/04/14 07:14:26;;;;;;;8.50;3.30;;;;;;;16.72;53.68;95967.53;6368639;22;20005;-59
2022/04/14 07:16:51;;;;;;;6.07;3.17;;;;;;;17.28;52.80;95970.03;6368768;22;20021;-59
2022/04/14 07:19:16;;;;;;;6.55;3.30;;;;;;;17.35;51.10;95970.13;6368555;22;20312;-59
2022/04/14 07:21:42;;;;;;;7.82;3.47;;;;;;;17.42;52.10;95970.25;6368463;22;20010;-59
2022/04/14 07:24:07;;;;;;;7.78;2.90;;;;;;;17.74;51.60;95976.34;6368408;22;20003;-59
2022/04/14 07:26:32;;;;;;;5.65;3.00;;;;;;;18.02;49.26;95973.94;6368414;22;20014;-58
2022/04/14 07:28:58;;;;;;;5.03;2.95;;;;;;;18.05;47.92;95975.41;6368118;22;20081;-59
2022/04/14 07:31:23;;;;;;;9.25;2.80;;;;;;;17.71;47.54;95979.34;6368487;22;20434;-59
2022/04/14 07:33:48;;;;;;;6.75;2.70;;;;;;;17.99;48.28;95981.44;6368286;22;20029;-59
2022/04/14 07:36:18;;;;;;;3.40;2.70;;;;;;;17.99;47.55;95982.25;6368483;22;20010;-59
2022/04/14 07:38:44;;;;;;;2.65;2.38;;;;;;;18.00;46.31;95977.75;6368611;22;20011;-59
2022/04/14 07:41:09;;;;;;;5.68;3.60;;;;;;;18.55;45.94;95981.03;6368230;22;20327;-59
2022/04/14 07:43:34;;;;;;;3.80;2.85;;;;;;;19.14;44.88;95979.28;6368290;22;20010;-59
2022/04/14 07:46:01;;;;;;;7.13;2.38;;;;;;;18.82;45.04;95975.19;6368138;22;19999;-59
2022/04/14 07:48:26;;;;;;;3.58;2.50;;;;;;;19.22;45.70;95974.84;6368448;22;20077;-59
2022/04/14 07:50:52;;;;;;;3.63;2.45;;;;;;;19.07;43.78;95978.38;6367977;22;20038;-59
2022/04/14 07:53:18;;;;;;;5.30;2.40;;;;;;;19.10;44.37;95977.19;6368208;22;19998;-60
2022/04/14 07:55:43;;;;;;;3.35;2.38;;;;;;;19.56;43.06;95981.31;6368213;22;20003;-59
2022/04/14 07:58:09;;;;;;;5.60;2.22;;;;;;;19.28;43.57;95976.75;6367887;22;20059;-59
2022/04/14 08:00:36;;;;;;;4.35;2.00;;;;;;;19.03;44.07;95979.78;6368280;22;20009;-60
2022/04/14 08:03:03;;;;;;;3.78;2.08;;;;;;;18.47;45.67;95973.13;6367972;22;20006;-59
2022/04/14 08:05:29;;;;;;;3.47;2.10;;;;;;;19.27;42.95;95972.41;6368404;22;20039;-59
2022/04/14 08:07:54;;;;;;;4.93;2.28;;;;;;;19.46;42.27;95979.81;6368016;22;20051;-59
2022/04/14 08:10:20;;;;;;;5.30;2.70;;;;;;;19.22;44.17;95982.84;6368335;22;20002;-59
2022/04/14 08:12:47;;;;;;;9.48;3.85;;;;;;;19.50;42.60;95982.09;6368043;22;19998;-59
2022/04/14 08:15:12;;;;;;;5.97;2.15;;;;;;;20.42;42.04;95976.84;6367933;22;20322;-59
2022/04/14 08:17:39;;;;;;;5.53;2.55;;;;;;;19.59;42.57;95980.97;6367995;22;20222;-59
2022/04/14 08:20:06;;;;;;;3.33;2.35;;;;;;;19.59;42.91;95980.97;6367950;22;19998;-59
2022/04/14 08:22:45;;;;;;;9.35;2.58;;;;;;;19.68;42.47;95969.09;6367852;22;20007;-59
2022/04/14 08:25:12;;;;;;;6.75;2.15;;;;;;;20.31;41.65;95973.69;6367640;22;20434;-59
2022/04/14 08:27:38;;;;;;;4.55;1.88;;;;;;;20.75;41.01;95968.16;6367904;22;20002;-59
2022/04/14 08:30:03;;;;;;;7.18;2.45;;;;;;;20.78;39.99;95962.41;6367829;22;20445;-59
2022/04/14 08:32:29;;;;;;;4.68;2.13;;;;;;;20.86;41.09;95953.41;6367858;22;20006;-59
2022/04/14 08:34:55;;;;;;;2.80;2.25;;;;;;;20.98;39.75;95961.69;6367733;22;20021;-59
2022/04/14 08:37:21;;;;;;;4.43;2.40;;;;;;;21.03;39.00;95959.22;6367683;22;20006;-59
2022/04/14 08:39:46;;;;;;;7.13;2.95;;;;;;;20.64;39.13;95948.16;6367571;22;20090;-59
2022/04/14 08:42:20;;;;;;;5.53;2.40;;;;;;;20.93;38.11;95958.78;6367463;22;20014;-59
2022/04/14 08:44:49;;;;;;;6.68;2.60;;;;;;;21.08;39.33;95962.13;6367871;22;20418;-59
2022/04/14 08:47:16;;;;;;;4.78;2.58;;;;;;;21.02;38.83;95961.09;6367419;22;20039;-59
2022/04/14 08:49:44;;;;;;;4.72;2.67;;;;;;;21.27;38.20;95962.38;6367389;22;20366;-59
2022/04/14 08:52:14;;;;;;;4.72;2.80;;;;;;;21.11;39.29;95958.22;6367552;22;20384;-59
2022/04/14 08:54:43;;;;;;;6.05;2.53;;;;;;;22.06;36.77;95956.47;6367623;22;20033;-59
2022/04/14 08:57:13;;;;;;;2.90;2.40;;;;;;;21.46;37.63;95963.44;6368075;22;20011;-59
2022/04/14 08:59:45;;;;;;;3.35;2.50;;;;;;;20.89;38.66;95953.84;6367477;22;20006;-59
2022/04/14 09:02:19;;;;;;;5.88;2.55;;;;;;;21.42;37.29;95955.00;6367512;22;20006;-59
2022/04/14 09:04:45;;;;;;;3.55;2.15;;;;;;;22.11;37.78;95941.41;6367613;22;19999;-59
2022/04/14 09:07:11;;;;;;;7.22;3.03;;;;;;;22.56;34.10;95945.25;6367382;22;20005;-59
2022/04/14 09:09:37;;;;;;;13.50;3.83;;;;;;;22.22;34.96;95947.16;6367328;22;20029;-59
2022/04/14 09:12:04;;;;;;;3.78;2.60;;;;;;;21.45;37.40;95943.06;6367207;22;20065;-59
2022/04/14 09:14:34;;;;;;;11.07;2.63;;;;;;;21.83;37.73;95944.31;6367524;22;20006;-59
2022/04/14 09:16:59;;;;;;;4.50;2.15;;;;;;;21.91;37.51;95937.94;6367187;22;20051;-59
2022/04/14 09:19:25;;;;;;;2.97;2.28;;;;;;;22.23;35.54;95936.22;6367222;22;20006;-59
2022/04/14 09:22:16;;;;;;;8.13;4.53;;;;;;;21.44;36.85;95934.19;6367312;22;20001;-60
2022/04/14 09:24:42;;;;;;;5.47;3.05;;;;;;;21.58;37.82;95929.66;6307546;22;20455;-59
2022/04/14 09:27:09;;;;;;;6.18;1.90;;;;;;;22.06;36.64;95925.09;6339683;22;20033;-59
2022/04/14 09:29:34;;;;;;;5.03;3.13;;;;;;;22.55;34.97;95924.81;6367221;22;20315;-59
2022/04/14 09:31:59;;;;;;;2.53;2.20;;;;;;;22.50;34.15;95922.78;6367111;22;20013;-59
2022/04/14 09:34:48;;;;;;;3.95;2.28;;;;;;;23.22;34.58;95920.97;6367622;22;20422;-60
2022/04/14 09:37:15;;;;;;;4.32;2.35;;;;;;;23.70;33.29;95919.63;6367141;22;20002;-59
2022/04/14 09:39:55;;;;;;;6.50;2.65;;;;;;;22.46;35.72;95921.53;6366960;22;20339;-59
2022/04/14 09:42:23;;;;;;;6.00;2.42;;;;;;;22.72;34.38;95922.47;6367011;22;20080;-59
2022/04/14 09:44:51;;;;;;;5.40;2.40;;;;;;;22.84;35.00;95917.25;6367220;22;20442;-59
2022/04/14 09:47:42;;;;;;;4.85;2.50;;;;;;;23.26;32.58;95915.00;6367026;22;20006;-59
2022/04/14 09:50:32;;;;;;;3.60;2.35;;;;;;;22.66;33.95;95920.63;6359262;22;20018;-60
2022/04/14 09:53:05;;;;;;;3.60;2.72;;;;;;;22.57;33.80;95910.16;6366656;22;20009;-59
2022/04/14 09:55:35;;;;;;;3.45;2.20;;;;;;;23.29;33.66;95909.19;6367366;22;20081;-59
2022/04/14 09:58:19;;;;;;;3.67;2.22;;;;;;;22.51;33.73;95902.13;6366802;22;20446;-59
2022/04/14 10:00:50;;;;;;;3.75;2.22;;;;;;;24.13;32.76;95913.47;6366980;22;20002;-59
2022/04/14 10:03:15;;;;;;;3.30;2.30;;;;;;;24.18;31.27;95902.00;6366773;22;20044;-59
2022/04/14 10:05:42;;;;;;;5.38;2.20;;;;;;;23.82;33.46;95903.59;6366965;22;20011;-58
2022/04/14 10:08:08;;;;;;;2.63;2.10;;;;;;;23.67;33.69;95907.44;6366601;22;19994;-58
2022/04/14 10:10:39;;;;;;;3.45;2.13;;;;;;;25.12;30.90;95898.22;6366619;22;20022;-57
2022/04/14 10:13:06;;;;;;;3.53;2.15;;;;;;;25.18;30.48;95899.13;6366695;22;19998;-57
2022/04/14 10:15:33;;;;;;;4.35;2.35;;;;;;;24.49;30.78;95896.72;6366706;22;20002;-57
2022/04/14 10:18:03;;;;;;;3.53;2.50;;;;;;;24.69;30.37;95885.72;6366793;22;20030;-57
2022/04/14 10:20:29;;;;;;;8.35;2.28;;;;;;;25.32;30.78;95889.00;6366957;22;20013;-57
2022/04/14 10:22:56;;;;;;;4.47;2.17;;;;;;;25.67;28.18;95890.97;6366696;22;20007;-57
2022/04/14 10:25:21;;;;;;;6.70;2.10;;;;;;;25.65;27.83;95889.56;6367113;22;20007;-57
2022/04/14 10:27:50;;;;;;;4.68;2.17;;;;;;;26.15;28.51;95889.09;6367248;22;20020;-57
2022/04/14 10:30:19;;;;;;;5.45;2.33;;;;;;;25.67;28.17;95899.03;6366818;22;19994;-57
2022/04/14 10:32:46;;;;;;;5.03;2.05;;;;;;;25.41;30.34;95889.47;6367073;22;20014;-57
2022/04/14 10:35:11;;;;;;;5.50;2.28;;;;;;;25.20;30.07;95891.69;6366629;22;20519;-57
2022/04/14 10:37:46;;;;;;;4.35;2.22;;;;;;;24.55;31.98;95888.56;6366668;22;20010;-57
2022/04/14 10:40:12;;;;;;;7.97;2.25;;;;;;;25.00;32.14;95889.25;6366500;22;20006;-57
2022/04/14 10:42:40;;;;;;;4.25;2.10;;;;;;;25.53;28.71;95884.13;6366563;22;20002;-57
2022/04/14 10:45:21;;;;;;;5.22;2.38;;;;;;;24.91;30.86;95882.56;6366888;22;20002;-57
2022/04/14 10:47:46;;;;;;;5.28;2.50;;;;;;;25.06;30.19;95880.25;6366703;22;20509;-57
2022/04/14 10:50:28;;;;;;;4.70;2.40;;;;;;;24.89;30.45;95878.22;6366496;22;20042;-57
2022/04/14 10:53:13;;;;;;;6.13;2.58;;;;;;;25.69;29.14;95875.38;6366546;22;20252;-57
2022/04/14 10:55:47;;;;;;;5.38;2.28;;;;;;;25.26;29.47;95873.75;6366802;22;20002;-57
2022/04/14 10:58:38;;;;;;;5.85;2.60;;;;;;;25.51;28.92;95876.28;6366777;22;20002;-58
2022/04/14 11:01:04;;;;;;;4.28;2.42;;;;;;;25.37;30.15;95878.34;6366557;22;20071;-58
2022/04/14 11:03:49;;;;;;;9.60;2.63;;;;;;;24.77;30.81;95871.97;6366815;22;20006;-58
2022/04/14 11:06:39;;;;;;;10.02;2.67;;;;;;;24.66;31.41;95872.72;6368396;22;20033;-59
2022/04/14 11:09:06;;;;;;;4.65;2.53;;;;;;;24.12;30.97;95878.72;6368831;22;20009;-59
2022/04/14 11:12:01;;;;;;;4.40;2.90;;;;;;;23.86;33.25;95877.91;6368692;22;20026;-59
2022/04/14 11:14:26;;;;;;;5.40;3.10;;;;;;;24.46;32.97;95874.59;6368631;22;20009;-59
2022/04/14 11:16:52;;;;;;;11.77;3.03;;;;;;;24.97;31.16;95871.69;6368756;22;20346;-59
2022/04/14 11:19:27;;;;;;;5.82;2.80;;;;;;;24.37;32.03;95873.28;6368383;22;20002;-59
2022/04/14 11:21:58;;;;;;;10.65;2.90;;;;;;;24.52;31.81;95866.66;6368416;22;19999;-59
2022/04/14 11:24:35;;;;;;;6.28;2.33;;;;;;;24.75;30.69;95874.06;6368673;22;20008;-59
2022/04/14 11:27:16;;;;;;;6.13;2.60;;;;;;;24.92;31.09;95870.75;6368161;22;20013;-59
2022/04/14 11:29:43;;;;;;;5.13;2.60;;;;;;;24.12;33.64;95876.88;6368357;22;20411;-59
2022/04/14 11:32:09;;;;;;;11.55;2.50;;;;;;;24.05;33.59;95878.78;6367960;22;20006;-59
2022/04/14 11:34:36;;;;;;;8.85;2.67;;;;;;;24.30;33.76;95878.72;6368528;22;20006;-59
2022/04/14 11:37:03;;;;;;;9.48;3.20;;;;;;;25.09;32.85;95877.13;6368246;22;20028;-59